createdAt,value
2023-04-07T08:09:56.817Z,10.50
2023-04-07T08:12:28.244Z,8.00
2023-04-07T08:14:56.661Z,13.20
2023-04-07T08:17:23.712Z,6.90
2023-04-07T08:19:52.418Z,8.80
2023-04-07T08:22:21.469Z,9.30
2023-04-07T08:24:49.109Z,8.40
2023-04-07T08:27:16.808Z,7.40
2023-04-07T08:29:44.400Z,14.10
2023-04-07T08:32:11.574Z,10.10
2023-04-07T08:34:38.976Z,9.70
2023-04-07T08:37:09.756Z,10.80
2023-04-07T08:39:38.645Z,9.50
2023-04-07T08:42:05.697Z,7.90
2023-04-07T08:44:33.524Z,11.30
2023-04-07T08:47:02.026Z,12.00
2023-04-07T08:49:29.939Z,9.20
2023-04-07T08:51:57.075Z,8.40
2023-04-07T08:54:25.977Z,11.60
2023-04-07T08:56:53.800Z,11.30
2023-04-07T08:59:26.758Z,11.70
2023-04-07T09:01:55.099Z,12.40
2023-04-07T09:04:24.963Z,12.30
2023-04-07T09:06:52.721Z,12.00
2023-04-07T09:09:19.976Z,9.00
2023-04-07T09:11:50.460Z,9.50
2023-04-07T09:14:19.101Z,12.70
2023-04-07T09:16:47.448Z,11.20
2023-04-07T09:19:18.989Z,13.60
2023-04-07T09:21:53.391Z,15.10
2023-04-07T09:24:24.728Z,9.20
2023-04-07T09:27:02.047Z,14.60
2023-04-07T09:29:31.059Z,11.70
2023-04-07T09:31:58.388Z,14.30
2023-04-07T09:34:26.664Z,13.80
2023-04-07T09:36:54.932Z,11.90
2023-04-07T09:39:22.159Z,11.80
2023-04-07T09:41:49.215Z,12.30
2023-04-07T09:44:16.222Z,15.50
2023-04-07T09:46:53.310Z,13.00
2023-04-07T09:49:21.577Z,14.70
2023-04-07T09:52:11.327Z,12.80
2023-04-07T09:54:41.526Z,18.40
2023-04-07T09:57:09.663Z,12.20
2023-04-07T09:59:39.270Z,14.30
2023-04-07T10:02:07.652Z,15.40
2023-04-07T10:04:35.921Z,15.40
2023-04-07T10:07:04.093Z,15.60
2023-04-07T10:09:33.195Z,13.50
2023-04-07T10:12:00.450Z,17.50
2023-04-07T10:14:30.563Z,15.70
2023-04-07T10:19:31.599Z,17.90
2023-04-07T10:21:58.697Z,15.50
2023-04-07T10:24:56.441Z,22.30
2023-04-07T10:27:52.260Z,12.30
2023-04-07T10:30:31.390Z,12.10
2023-04-07T10:33:19.044Z,13.60
2023-04-07T10:36:06.329Z,12.60
2023-04-07T10:38:33.874Z,17.40
2023-04-07T10:41:01.157Z,19.10
2023-04-07T10:51:06.408Z,15.90
2023-04-07T10:53:38.645Z,17.60
2023-04-07T10:56:06.051Z,17.30
2023-04-07T10:58:34.200Z,14.40
2023-04-07T11:01:01.600Z,14.40
2023-04-07T11:03:30.207Z,12.80
2023-04-07T11:06:14.157Z,22.10
2023-04-07T11:08:47.528Z,15.20
2023-04-07T11:11:38.948Z,15.40
2023-04-07T11:14:06.734Z,13.00
2023-04-07T11:16:38.318Z,16.30
2023-04-07T11:19:07.207Z,16.90
2023-04-07T11:21:34.495Z,15.90
2023-04-07T11:24:01.750Z,10.60
2023-04-07T11:26:30.515Z,13.50
2023-04-07T11:28:59.460Z,18.30
2023-04-07T11:31:29.217Z,9.10
2023-04-07T11:34:01.986Z,15.00
2023-04-07T11:36:35.328Z,15.30
2023-04-07T11:39:03.096Z,13.90
2023-04-07T11:41:33.052Z,11.90
2023-04-07T11:44:09.741Z,12.20
2023-04-07T11:46:38.977Z,12.10
2023-04-07T11:49:13.790Z,11.60
2023-04-07T11:52:21.194Z,9.90
2023-04-07T11:54:50.007Z,10.00
2023-04-07T11:57:28.158Z,5.40
2023-04-07T12:00:12.350Z,8.80
2023-04-07T12:06:49.089Z,8.40
2023-04-07T12:09:29.326Z,11.30
2023-04-07T12:11:57.190Z,7.00
2023-04-07T12:14:25.838Z,8.40
2023-04-07T12:16:53.062Z,7.30
2023-04-07T12:20:37.779Z,8.80
2023-04-07T12:23:06.413Z,6.30
2023-04-07T12:25:33.308Z,9.80
2023-04-07T12:28:01.872Z,8.80
2023-04-07T12:30:28.941Z,10.20
2023-04-07T12:32:56.092Z,9.80
2023-04-07T12:35:23.335Z,9.70
2023-04-07T12:37:51.518Z,7.30
2023-04-07T12:40:19.604Z,9.30
2023-04-07T12:42:47.687Z,7.30
2023-04-07T12:45:14.181Z,5.60
2023-04-07T12:47:44.744Z,5.90
2023-04-07T12:50:12.980Z,6.60
2023-04-07T12:52:43.506Z,6.10
2023-04-07T12:55:10.552Z,7.70
2023-04-07T12:57:37.518Z,6.50
2023-04-07T13:00:06.312Z,9.30
2023-04-07T13:02:36.323Z,8.40
2023-04-07T13:05:04.308Z,8.00
2023-04-07T13:07:31.320Z,7.00
2023-04-07T13:09:57.933Z,6.90
2023-04-07T13:12:25.520Z,7.50
2023-04-07T13:15:08.651Z,7.70
2023-04-07T13:17:36.375Z,10.00
2023-04-07T13:20:04.417Z,7.50
2023-04-07T13:22:32.158Z,8.20
2023-04-07T13:25:00.240Z,11.00
2023-04-07T13:27:29.201Z,7.40
2023-04-07T13:29:55.837Z,10.50
2023-04-07T13:32:48.809Z,10.90
2023-04-07T13:35:18.918Z,10.10
2023-04-07T13:37:45.655Z,10.90
2023-04-07T13:40:12.821Z,9.60
2023-04-07T13:42:39.870Z,7.00
2023-04-07T13:45:07.349Z,10.40
2023-04-07T13:47:34.778Z,7.60
2023-04-07T13:50:02.221Z,11.10
2023-04-07T13:52:29.656Z,9.10
2023-04-07T13:54:57.599Z,7.60
2023-04-07T13:57:24.332Z,8.80
2023-04-07T13:59:53.712Z,9.10
2023-04-07T14:02:21.098Z,9.70
2023-04-07T14:04:48.100Z,7.40
2023-04-07T14:07:14.930Z,8.30
2023-04-07T14:09:42.422Z,8.90
2023-04-07T14:12:09.382Z,9.90
2023-04-07T14:14:38.914Z,11.30
2023-04-07T14:17:05.699Z,8.40
2023-04-07T14:19:33.008Z,8.50
2023-04-07T14:21:59.770Z,7.50
2023-04-07T14:24:26.736Z,9.50
2023-04-07T14:26:54.628Z,7.00
2023-04-07T14:29:22.041Z,6.80
2023-04-07T14:31:49.097Z,9.20
2023-04-07T14:34:15.637Z,8.90
2023-04-07T14:36:53.111Z,10.50
2023-04-07T14:39:21.184Z,5.30
2023-04-07T14:41:47.828Z,7.00
2023-04-07T14:44:14.988Z,8.90
2023-04-07T14:46:42.332Z,9.60
2023-04-07T14:49:09.388Z,8.60
2023-04-07T14:51:36.017Z,7.80
2023-04-07T14:54:02.757Z,8.10
2023-04-07T14:56:29.505Z,7.80
2023-04-07T14:58:56.282Z,11.90
2023-04-07T15:01:22.970Z,9.20
2023-04-07T15:03:52.347Z,10.40
2023-04-07T15:06:19.329Z,9.10
2023-04-07T15:08:49.359Z,8.80
2023-04-07T15:11:16.015Z,10.30
2023-04-07T15:13:42.819Z,8.10
2023-04-07T15:16:13.504Z,8.40
2023-04-07T15:18:43.877Z,11.30
2023-04-07T15:21:10.720Z,10.00
2023-04-07T15:23:38.501Z,9.80
2023-04-07T15:26:05.698Z,10.00
2023-04-07T15:28:33.313Z,8.60
2023-04-07T15:31:00.791Z,10.90
2023-04-07T15:33:28.729Z,10.50
2023-04-07T15:35:55.681Z,9.00
2023-04-07T15:38:22.835Z,9.30
2023-04-07T15:40:50.919Z,10.60
2023-04-07T15:43:19.504Z,9.70
2023-04-07T15:45:46.941Z,10.70
2023-04-07T15:48:16.024Z,10.80
2023-04-07T15:50:43.065Z,9.30
2023-04-07T15:53:09.983Z,9.90
2023-04-07T15:55:36.813Z,9.90
2023-04-07T15:58:03.602Z,11.40
2023-04-07T16:00:32.618Z,9.30
2023-04-07T16:03:03.138Z,8.80
2023-04-07T16:05:30.272Z,12.80
2023-04-07T16:07:56.823Z,12.10
2023-04-07T16:10:23.389Z,14.60
2023-04-07T16:12:53.944Z,11.20
2023-04-07T16:15:36.468Z,9.60
2023-04-07T16:18:08.547Z,9.80
2023-04-07T16:20:35.500Z,10.40
2023-04-07T16:23:02.063Z,9.20
2023-04-07T16:25:29.479Z,11.80
2023-04-07T16:27:55.850Z,8.40
2023-04-07T16:30:24.644Z,8.40
2023-04-07T16:33:11.032Z,7.70
2023-04-07T16:35:37.830Z,8.50
2023-04-07T16:38:05.617Z,8.20
2023-04-07T16:40:33.403Z,8.90
2023-04-07T16:43:00.144Z,8.00
2023-04-07T16:45:26.688Z,9.10
2023-04-07T16:47:53.217Z,9.10
2023-04-07T16:50:22.415Z,10.50
2023-04-07T16:52:48.914Z,8.20
2023-04-07T16:55:15.489Z,7.30
2023-04-07T16:57:44.171Z,6.70
2023-04-07T17:00:11.409Z,8.30
2023-04-07T17:02:41.527Z,9.00
2023-04-07T17:05:09.135Z,9.30
2023-04-07T17:07:35.700Z,9.00
2023-04-07T17:10:06.774Z,7.60
2023-04-07T17:12:35.147Z,8.10
2023-04-07T17:15:08.950Z,9.00
2023-04-07T17:17:37.643Z,7.10
2023-04-07T17:28:03.096Z,8.20
2023-04-07T17:30:29.608Z,7.50
2023-04-07T17:32:56.302Z,8.80
2023-04-07T17:35:22.749Z,11.80
2023-04-07T17:37:50.444Z,9.40
2023-04-07T17:40:16.987Z,10.10
2023-04-07T17:42:44.431Z,9.20
2023-04-07T17:45:11.347Z,7.40
2023-04-07T17:47:38.314Z,11.00
2023-04-07T17:50:06.404Z,7.40
2023-04-07T17:52:33.046Z,8.40
2023-04-07T17:54:59.373Z,8.90
2023-04-07T17:57:25.984Z,7.70
2023-04-07T17:59:52.947Z,8.20
2023-04-07T18:02:19.621Z,9.20
2023-04-07T18:04:46.417Z,11.70
2023-04-07T18:07:13.288Z,11.50
2023-04-07T18:09:42.414Z,10.40
2023-04-07T18:12:08.912Z,9.50
2023-04-07T18:14:36.162Z,9.20
2023-04-07T18:17:02.460Z,10.20
2023-04-07T18:19:29.653Z,7.20
2023-04-07T18:21:56.082Z,8.90
2023-04-07T18:24:22.554Z,7.30
2023-04-07T18:26:49.644Z,8.90
2023-04-07T18:29:16.194Z,9.50
2023-04-07T18:31:43.322Z,6.70
2023-04-07T18:34:10.542Z,11.20
2023-04-07T18:36:42.770Z,11.90
2023-04-07T18:39:09.491Z,9.60
2023-04-07T18:41:36.075Z,11.20
2023-04-07T18:44:02.729Z,9.90
2023-04-07T18:46:29.747Z,10.80
2023-04-07T18:48:59.434Z,9.10
2023-04-07T18:51:26.061Z,10.40
2023-04-07T18:53:54.443Z,9.70
2023-04-07T18:56:21.801Z,10.20
2023-04-07T18:58:48.786Z,8.80
2023-04-07T19:01:18.186Z,10.10
2023-04-07T19:03:45.765Z,12.00
2023-04-07T19:06:15.930Z,9.00
2023-04-07T19:08:46.666Z,8.70
2023-04-07T19:11:14.323Z,10.00
2023-04-07T19:13:41.163Z,11.90
2023-04-07T19:16:07.761Z,13.10
2023-04-07T19:18:34.938Z,11.20
2023-04-07T19:21:01.891Z,14.30
2023-04-07T19:23:30.072Z,14.30
2023-04-07T19:25:56.416Z,10.10
2023-04-07T19:28:27.640Z,12.00
2023-04-07T19:30:54.758Z,10.40
2023-04-07T19:33:22.680Z,16.30
2023-04-07T19:35:49.998Z,14.80
2023-04-07T19:38:16.967Z,10.10
2023-04-07T19:40:43.722Z,12.20
2023-04-07T19:43:10.309Z,9.30
2023-04-07T19:45:36.934Z,11.20
2023-04-07T19:48:05.997Z,14.70
2023-04-07T19:50:33.116Z,13.10
2023-04-07T19:52:59.742Z,10.50
2023-04-07T19:55:26.907Z,12.00
2023-04-07T19:57:53.534Z,8.90
2023-04-07T20:00:20.890Z,9.00
2023-04-07T20:03:07.703Z,11.60
2023-04-07T20:05:34.446Z,10.30
2023-04-07T20:08:01.348Z,11.30
2023-04-07T20:10:27.832Z,16.00
2023-04-07T20:12:54.973Z,12.50
2023-04-07T20:15:23.915Z,12.30
2023-04-07T20:17:51.251Z,9.40
2023-04-07T20:20:23.176Z,11.60
2023-04-07T20:22:52.000Z,14.00
2023-04-07T20:29:14.749Z,10.50
2023-04-07T20:31:42.219Z,13.10
2023-04-07T20:34:09.309Z,17.80
2023-04-07T20:36:36.594Z,12.50
2023-04-07T20:39:04.325Z,9.60
2023-04-07T20:41:32.237Z,10.70
2023-04-07T20:43:59.916Z,10.80
2023-04-07T20:46:30.154Z,6.90
2023-04-07T20:48:57.854Z,8.60
2023-04-07T20:51:24.827Z,9.30
2023-04-07T20:53:52.614Z,6.80
2023-04-07T20:56:20.009Z,10.30
2023-04-07T20:58:54.204Z,9.40
2023-04-07T21:01:22.007Z,7.30
2023-04-07T21:03:49.792Z,9.60
2023-04-07T21:06:17.569Z,8.50
2023-04-07T21:08:46.634Z,13.10
2023-04-07T21:11:14.114Z,10.60
2023-04-07T21:13:41.504Z,9.80
2023-04-07T21:16:08.843Z,8.40
2023-04-07T21:18:36.778Z,8.60
2023-04-07T21:21:04.577Z,8.50
2023-04-07T21:23:32.876Z,8.80
2023-04-07T21:26:01.919Z,6.50
2023-04-07T21:28:35.732Z,9.80
2023-04-07T21:31:04.069Z,10.60
2023-04-07T21:33:31.367Z,9.80
2023-04-07T21:36:00.732Z,9.50
2023-04-07T21:38:27.937Z,9.90
2023-04-07T21:40:56.612Z,9.30
2023-04-07T21:43:24.768Z,9.30
2023-04-07T21:45:52.595Z,8.80
2023-04-07T21:48:23.721Z,9.30
2023-04-07T21:50:52.301Z,10.60
2023-04-07T22:00:39.068Z,11.00
2023-04-07T22:03:08.035Z,8.60
2023-04-07T22:05:38.671Z,10.70
2023-04-07T22:08:06.806Z,9.60
2023-04-07T22:10:34.123Z,12.90
2023-04-07T22:13:02.130Z,8.00
2023-04-07T22:15:31.086Z,9.50
2023-04-07T22:17:58.601Z,10.50
2023-04-07T22:20:28.031Z,11.60
2023-04-07T22:22:57.986Z,8.80
2023-04-07T22:25:25.599Z,9.90
2023-04-07T22:27:52.737Z,9.70
2023-04-07T22:30:20.711Z,8.30
2023-04-07T22:35:19.177Z,11.60
2023-04-07T22:37:46.380Z,9.60
2023-04-07T22:40:13.573Z,7.50
2023-04-07T22:42:41.084Z,8.50
2023-04-07T22:45:10.025Z,9.40
2023-04-07T22:47:37.205Z,8.70
2023-04-07T22:50:04.766Z,9.20
2023-04-07T22:52:32.430Z,7.20
2023-04-07T22:54:59.544Z,10.30
2023-04-07T22:57:26.968Z,8.40
2023-04-07T22:59:54.399Z,9.30
2023-04-07T23:02:21.409Z,9.30
2023-04-07T23:04:49.696Z,10.00
2023-04-07T23:07:16.795Z,6.10
2023-04-07T23:09:50.463Z,10.20
2023-04-07T23:12:19.165Z,8.40
2023-04-07T23:14:46.659Z,7.90
2023-04-07T23:17:18.220Z,8.90
2023-04-07T23:19:45.518Z,9.30
2023-04-07T23:22:12.549Z,9.10
2023-04-07T23:24:41.714Z,8.50
2023-04-07T23:27:08.815Z,10.30
2023-04-07T23:29:41.319Z,9.20
2023-04-07T23:32:08.781Z,7.40
2023-04-07T23:34:35.800Z,11.30
2023-04-07T23:37:03.302Z,8.10
2023-04-07T23:39:31.344Z,9.70
2023-04-07T23:41:58.301Z,9.60
2023-04-07T23:44:25.393Z,7.70
2023-04-07T23:46:52.587Z,7.80
2023-04-07T23:49:19.713Z,6.10
2023-04-07T23:51:46.584Z,10.00
2023-04-07T23:54:25.218Z,9.00
2023-04-07T23:56:52.146Z,8.90
2023-04-07T23:59:19.058Z,8.20
